sensor_id;sensor_type;location;lat;lon;timestamp;P1;durP1;ratioP1;P2;durP2;ratioP2
27632;SDS011;15046;50.930;13.334;2022-08-03T00:00:04;9.70;;;4.93;;
27632;SDS011;15046;50.930;13.334;2022-08-03T00:02:31;12.75;;;5.45;;
27632;SDS011;15046;50.930;13.334;2022-08-03T00:04:57;12.35;;;5.30;;
27632;SDS011;15046;50.930;13.334;2022-08-03T00:07:22;6.25;;;4.63;;
27632;SDS011;15046;50.930;13.334;2022-08-03T00:09:48;6.22;;;4.70;;
27632;SDS011;15046;50.930;13.334;2022-08-03T00:12:14;8.88;;;4.47;;
27632;SDS011;15046;50.930;13.334;2022-08-03T00:14:40;7.15;;;5.32;;
27632;SDS011;15046;50.930;13.334;2022-08-03T00:17:06;7.63;;;4.53;;
27632;SDS011;15046;50.930;13.334;2022-08-03T00:19:32;10.10;;;4.40;;
27632;SDS011;15046;50.930;13.334;2022-08-03T00:21:58;9.30;;;4.60;;
27632;SDS011;15046;50.930;13.334;2022-08-03T00:24:24;7.35;;;4.25;;
27632;SDS011;15046;50.930;13.334;2022-08-03T00:26:50;8.10;;;4.82;;
27632;SDS011;15046;50.930;13.334;2022-08-03T00:29:16;7.55;;;4.97;;
27632;SDS011;15046;50.930;13.334;2022-08-03T00:31:42;6.55;;;4.20;;
27632;SDS011;15046;50.930;13.334;2022-08-03T00:34:08;8.50;;;5.05;;
27632;SDS011;15046;50.930;13.334;2022-08-03T00:36:34;6.82;;;4.80;;
27632;SDS011;15046;50.930;13.334;2022-08-03T00:39:00;6.97;;;5.00;;
27632;SDS011;15046;50.930;13.334;2022-08-03T00:41:25;10.32;;;5.18;;
27632;SDS011;15046;50.930;13.334;2022-08-03T00:43:51;7.35;;;5.15;;
27632;SDS011;15046;50.930;13.334;2022-08-03T00:46:17;10.40;;;5.40;;
27632;SDS011;15046;50.930;13.334;2022-08-03T00:48:44;8.38;;;5.80;;
27632;SDS011;15046;50.930;13.334;2022-08-03T00:51:10;8.77;;;5.38;;
27632;SDS011;15046;50.930;13.334;2022-08-03T00:53:35;10.55;;;5.65;;
27632;SDS011;15046;50.930;13.334;2022-08-03T00:56:02;8.60;;;5.32;;
27632;SDS011;15046;50.930;13.334;2022-08-03T00:58:28;8.68;;;5.72;;
27632;SDS011;15046;50.930;13.334;2022-08-03T01:00:54;7.10;;;5.82;;
27632;SDS011;15046;50.930;13.334;2022-08-03T01:03:20;9.55;;;5.57;;
27632;SDS011;15046;50.930;13.334;2022-08-03T01:05:57;5.93;;;4.78;;
27632;SDS011;15046;50.930;13.334;2022-08-03T01:14:48;8.25;;;5.85;;
27632;SDS011;15046;50.930;13.334;2022-08-03T01:17:36;8.30;;;5.88;;
27632;SDS011;15046;50.930;13.334;2022-08-03T01:20:10;8.38;;;5.45;;
27632;SDS011;15046;50.930;13.334;2022-08-03T01:31:55;9.10;;;5.43;;
27632;SDS011;15046;50.930;13.334;2022-08-03T01:34:27;6.60;;;4.97;;
27632;SDS011;15046;50.930;13.334;2022-08-03T01:36:58;8.30;;;5.85;;
27632;SDS011;15046;50.930;13.334;2022-08-03T01:39:27;8.13;;;5.57;;
27632;SDS011;15046;50.930;13.334;2022-08-03T01:41:57;8.35;;;6.10;;
27632;SDS011;15046;50.930;13.334;2022-08-03T01:44:28;8.10;;;6.10;;
27632;SDS011;15046;50.930;13.334;2022-08-03T01:46:57;6.60;;;5.28;;
27632;SDS011;15046;50.930;13.334;2022-08-03T01:49:25;7.60;;;5.93;;
27632;SDS011;15046;50.930;13.334;2022-08-03T01:51:52;7.25;;;5.40;;
27632;SDS011;15046;50.930;13.334;2022-08-03T01:54:20;8.32;;;6.07;;
27632;SDS011;15046;50.930;13.334;2022-08-03T01:56:48;7.97;;;5.80;;
27632;SDS011;15046;50.930;13.334;2022-08-03T01:59:16;7.60;;;6.05;;
27632;SDS011;15046;50.930;13.334;2022-08-03T02:01:44;9.23;;;6.20;;
27632;SDS011;15046;50.930;13.334;2022-08-03T02:04:12;10.02;;;5.60;;
27632;SDS011;15046;50.930;13.334;2022-08-03T02:06:39;8.77;;;5.72;;
27632;SDS011;15046;50.930;13.334;2022-08-03T02:09:06;8.35;;;6.25;;
27632;SDS011;15046;50.930;13.334;2022-08-03T02:11:33;9.88;;;5.78;;
27632;SDS011;15046;50.930;13.334;2022-08-03T02:14:01;10.27;;;5.75;;
27632;SDS011;15046;50.930;13.334;2022-08-03T02:16:29;9.00;;;5.32;;
27632;SDS011;15046;50.930;13.334;2022-08-03T02:18:57;10.27;;;5.75;;
27632;SDS011;15046;50.930;13.334;2022-08-03T02:21:27;10.50;;;6.47;;
27632;SDS011;15046;50.930;13.334;2022-08-03T02:23:54;8.35;;;5.00;;
27632;SDS011;15046;50.930;13.334;2022-08-03T02:26:20;9.68;;;5.85;;
27632;SDS011;15046;50.930;13.334;2022-08-03T02:28:48;10.55;;;5.57;;
27632;SDS011;15046;50.930;13.334;2022-08-03T02:31:18;7.70;;;5.75;;
27632;SDS011;15046;50.930;13.334;2022-08-03T02:33:49;9.77;;;6.00;;
27632;SDS011;15046;50.930;13.334;2022-08-03T02:36:24;8.93;;;5.63;;
27632;SDS011;15046;50.930;13.334;2022-08-03T02:38:53;7.97;;;5.60;;
27632;SDS011;15046;50.930;13.334;2022-08-03T02:41:26;9.68;;;5.93;;
27632;SDS011;15046;50.930;13.334;2022-08-03T02:43:56;7.85;;;5.60;;
27632;SDS011;15046;50.930;13.334;2022-08-03T02:46:26;12.95;;;6.20;;
27632;SDS011;15046;50.930;13.334;2022-08-03T02:48:56;7.60;;;6.25;;
27632;SDS011;15046;50.930;13.334;2022-08-03T02:51:24;8.60;;;5.60;;
27632;SDS011;15046;50.930;13.334;2022-08-03T02:53:54;6.37;;;5.33;;
27632;SDS011;15046;50.930;13.334;2022-08-03T02:56:21;7.70;;;5.55;;
27632;SDS011;15046;50.930;13.334;2022-08-03T02:58:49;11.80;;;5.70;;
27632;SDS011;15046;50.930;13.334;2022-08-03T03:01:18;9.55;;;6.35;;
27632;SDS011;15046;50.930;13.334;2022-08-03T03:06:13;10.90;;;6.00;;
27632;SDS011;15046;50.930;13.334;2022-08-03T03:08:41;8.80;;;6.32;;
27632;SDS011;15046;50.930;13.334;2022-08-03T03:11:07;8.60;;;6.22;;
27632;SDS011;15046;50.930;13.334;2022-08-03T03:13:34;8.15;;;5.40;;
27632;SDS011;15046;50.930;13.334;2022-08-03T03:16:01;7.50;;;5.55;;
27632;SDS011;15046;50.930;13.334;2022-08-03T03:18:30;9.65;;;5.80;;
27632;SDS011;15046;50.930;13.334;2022-08-03T03:20:57;9.35;;;5.97;;
27632;SDS011;15046;50.930;13.334;2022-08-03T03:23:26;9.07;;;6.28;;
27632;SDS011;15046;50.930;13.334;2022-08-03T03:25:53;9.73;;;6.00;;
27632;SDS011;15046;50.930;13.334;2022-08-03T03:28:21;8.20;;;5.72;;
27632;SDS011;15046;50.930;13.334;2022-08-03T03:30:48;8.13;;;6.10;;
27632;SDS011;15046;50.930;13.334;2022-08-03T03:33:14;9.00;;;6.68;;
27632;SDS011;15046;50.930;13.334;2022-08-03T03:35:41;9.50;;;6.78;;
27632;SDS011;15046;50.930;13.334;2022-08-03T03:38:09;8.83;;;5.93;;
27632;SDS011;15046;50.930;13.334;2022-08-03T03:40:36;7.50;;;6.05;;
27632;SDS011;15046;50.930;13.334;2022-08-03T03:43:06;7.05;;;5.68;;
27632;SDS011;15046;50.930;13.334;2022-08-03T03:45:33;8.32;;;5.40;;
27632;SDS011;15046;50.930;13.334;2022-08-03T03:48:02;9.27;;;6.50;;
27632;SDS011;15046;50.930;13.334;2022-08-03T03:50:30;8.68;;;5.78;;
27632;SDS011;15046;50.930;13.334;2022-08-03T03:52:57;7.07;;;6.00;;
27632;SDS011;15046;50.930;13.334;2022-08-03T03:55:23;9.38;;;6.22;;
27632;SDS011;15046;50.930;13.334;2022-08-03T03:57:49;7.90;;;6.65;;
27632;SDS011;15046;50.930;13.334;2022-08-03T04:00:16;7.03;;;5.32;;
27632;SDS011;15046;50.930;13.334;2022-08-03T04:02:43;7.95;;;5.50;;
27632;SDS011;15046;50.930;13.334;2022-08-03T04:05:09;11.15;;;6.45;;
27632;SDS011;15046;50.930;13.334;2022-08-03T04:07:57;9.48;;;5.97;;
27632;SDS011;15046;50.930;13.334;2022-08-03T04:10:45;9.13;;;6.88;;
27632;SDS011;15046;50.930;13.334;2022-08-03T04:13:28;9.57;;;6.40;;
27632;SDS011;15046;50.930;13.334;2022-08-03T04:16:00;10.38;;;6.93;;
27632;SDS011;15046;50.930;13.334;2022-08-03T04:18:28;9.23;;;6.18;;
27632;SDS011;15046;50.930;13.334;2022-08-03T04:20:59;12.13;;;6.07;;
27632;SDS011;15046;50.930;13.334;2022-08-03T04:25:54;10.38;;;6.47;;
27632;SDS011;15046;50.930;13.334;2022-08-03T04:28:21;9.63;;;6.63;;
27632;SDS011;15046;50.930;13.334;2022-08-03T04:30:48;9.63;;;7.47;;
27632;SDS011;15046;50.930;13.334;2022-08-03T04:33:17;10.43;;;6.87;;
27632;SDS011;15046;50.930;13.334;2022-08-03T04:35:45;9.57;;;6.55;;
27632;SDS011;15046;50.930;13.334;2022-08-03T04:38:12;11.27;;;6.72;;
27632;SDS011;15046;50.930;13.334;2022-08-03T04:40:40;9.65;;;6.47;;
27632;SDS011;15046;50.930;13.334;2022-08-03T04:43:08;8.07;;;5.72;;
27632;SDS011;15046;50.930;13.334;2022-08-03T04:45:35;8.10;;;6.00;;
27632;SDS011;15046;50.930;13.334;2022-08-03T04:48:02;8.40;;;6.03;;
27632;SDS011;15046;50.930;13.334;2022-08-03T04:50:29;9.25;;;5.95;;
27632;SDS011;15046;50.930;13.334;2022-08-03T04:52:55;10.73;;;6.07;;
27632;SDS011;15046;50.930;13.334;2022-08-03T04:55:25;7.65;;;5.47;;
27632;SDS011;15046;50.930;13.334;2022-08-03T04:57:52;10.13;;;5.78;;
27632;SDS011;15046;50.930;13.334;2022-08-03T05:00:18;8.18;;;5.35;;
27632;SDS011;15046;50.930;13.334;2022-08-03T05:02:44;9.75;;;6.00;;
27632;SDS011;15046;50.930;13.334;2022-08-03T05:05:09;11.00;;;5.88;;
27632;SDS011;15046;50.930;13.334;2022-08-03T05:07:36;9.32;;;5.57;;
27632;SDS011;15046;50.930;13.334;2022-08-03T05:10:05;6.13;;;4.80;;
27632;SDS011;15046;50.930;13.334;2022-08-03T05:12:32;8.18;;;5.47;;
27632;SDS011;15046;50.930;13.334;2022-08-03T05:14:58;7.68;;;4.85;;
27632;SDS011;15046;50.930;13.334;2022-08-03T05:17:24;9.10;;;5.75;;
27632;SDS011;15046;50.930;13.334;2022-08-03T05:19:50;8.02;;;5.15;;
27632;SDS011;15046;50.930;13.334;2022-08-03T05:22:16;9.13;;;5.18;;
27632;SDS011;15046;50.930;13.334;2022-08-03T05:24:42;8.98;;;5.00;;
27632;SDS011;15046;50.930;13.334;2022-08-03T05:27:08;6.63;;;4.65;;
27632;SDS011;15046;50.930;13.334;2022-08-03T05:29:33;7.28;;;5.35;;
27632;SDS011;15046;50.930;13.334;2022-08-03T05:32:06;7.13;;;4.80;;
27632;SDS011;15046;50.930;13.334;2022-08-03T05:34:32;7.45;;;4.95;;
27632;SDS011;15046;50.930;13.334;2022-08-03T05:36:58;7.85;;;5.13;;
27632;SDS011;15046;50.930;13.334;2022-08-03T05:39:23;8.07;;;4.90;;
27632;SDS011;15046;50.930;13.334;2022-08-03T05:41:49;7.75;;;4.60;;
27632;SDS011;15046;50.930;13.334;2022-08-03T05:44:15;7.72;;;4.45;;
27632;SDS011;15046;50.930;13.334;2022-08-03T05:46:41;13.88;;;4.75;;
27632;SDS011;15046;50.930;13.334;2022-08-03T05:49:06;6.93;;;4.85;;
27632;SDS011;15046;50.930;13.334;2022-08-03T05:51:32;7.72;;;4.45;;
27632;SDS011;15046;50.930;13.334;2022-08-03T05:53:58;7.22;;;4.30;;
27632;SDS011;15046;50.930;13.334;2022-08-03T05:56:24;7.75;;;3.95;;
27632;SDS011;15046;50.930;13.334;2022-08-03T05:58:50;5.38;;;3.65;;
27632;SDS011;15046;50.930;13.334;2022-08-03T06:01:16;4.88;;;3.53;;
27632;SDS011;15046;50.930;13.334;2022-08-03T06:03:43;7.90;;;3.90;;
27632;SDS011;15046;50.930;13.334;2022-08-03T06:06:09;4.93;;;3.28;;
27632;SDS011;15046;50.930;13.334;2022-08-03T06:08:36;5.47;;;3.38;;
27632;SDS011;15046;50.930;13.334;2022-08-03T06:11:02;6.10;;;3.42;;
27632;SDS011;15046;50.930;13.334;2022-08-03T06:13:28;8.25;;;3.53;;
27632;SDS011;15046;50.930;13.334;2022-08-03T06:15:54;6.45;;;3.42;;
27632;SDS011;15046;50.930;13.334;2022-08-03T06:18:20;6.05;;;3.50;;
27632;SDS011;15046;50.930;13.334;2022-08-03T06:20:48;7.68;;;3.15;;
27632;SDS011;15046;50.930;13.334;2022-08-03T06:23:14;6.38;;;3.58;;
27632;SDS011;15046;50.930;13.334;2022-08-03T06:25:39;7.22;;;3.50;;
27632;SDS011;15046;50.930;13.334;2022-08-03T06:28:05;8.57;;;3.40;;
27632;SDS011;15046;50.930;13.334;2022-08-03T06:30:31;9.18;;;3.20;;
27632;SDS011;15046;50.930;13.334;2022-08-03T06:32:57;4.88;;;2.92;;
27632;SDS011;15046;50.930;13.334;2022-08-03T06:35:23;5.40;;;2.85;;
27632;SDS011;15046;50.930;13.334;2022-08-03T06:37:49;5.07;;;2.90;;
27632;SDS011;15046;50.930;13.334;2022-08-03T06:40:16;5.65;;;3.00;;
27632;SDS011;15046;50.930;13.334;2022-08-03T06:42:44;5.53;;;3.17;;
27632;SDS011;15046;50.930;13.334;2022-08-03T06:45:11;6.18;;;2.90;;
27632;SDS011;15046;50.930;13.334;2022-08-03T06:47:37;6.45;;;2.92;;
27632;SDS011;15046;50.930;13.334;2022-08-03T06:50:04;6.93;;;2.97;;
27632;SDS011;15046;50.930;13.334;2022-08-03T06:52:30;4.82;;;2.65;;
27632;SDS011;15046;50.930;13.334;2022-08-03T06:54:56;4.72;;;2.80;;
27632;SDS011;15046;50.930;13.334;2022-08-03T06:57:22;5.50;;;3.00;;
27632;SDS011;15046;50.930;13.334;2022-08-03T06:59:49;5.90;;;2.65;;
27632;SDS011;15046;50.930;13.334;2022-08-03T07:02:15;5.45;;;2.60;;
27632;SDS011;15046;50.930;13.334;2022-08-03T07:04:42;7.07;;;2.67;;
27632;SDS011;15046;50.930;13.334;2022-08-03T07:07:08;4.10;;;2.90;;
27632;SDS011;15046;50.930;13.334;2022-08-03T07:09:34;3.95;;;2.35;;
27632;SDS011;15046;50.930;13.334;2022-08-03T07:12:00;5.85;;;2.70;;
27632;SDS011;15046;50.930;13.334;2022-08-03T07:14:26;4.65;;;2.67;;
27632;SDS011;15046;50.930;13.334;2022-08-03T07:16:52;11.13;;;2.97;;
27632;SDS011;15046;50.930;13.334;2022-08-03T07:19:18;6.47;;;3.00;;
27632;SDS011;15046;50.930;13.334;2022-08-03T07:21:43;4.95;;;2.72;;
27632;SDS011;15046;50.930;13.334;2022-08-03T07:24:09;6.45;;;2.72;;
27632;SDS011;15046;50.930;13.334;2022-08-03T07:26:35;7.82;;;2.38;;
27632;SDS011;15046;50.930;13.334;2022-08-03T07:29:01;6.82;;;2.75;;
27632;SDS011;15046;50.930;13.334;2022-08-03T07:31:27;5.85;;;2.42;;
27632;SDS011;15046;50.930;13.334;2022-08-03T07:33:53;2.97;;;2.00;;
27632;SDS011;15046;50.930;13.334;2022-08-03T07:36:18;7.55;;;2.25;;
27632;SDS011;15046;50.930;13.334;2022-08-03T07:38:44;4.78;;;2.50;;
27632;SDS011;15046;50.930;13.334;2022-08-03T07:41:10;3.80;;;2.25;;
27632;SDS011;15046;50.930;13.334;2022-08-03T07:43:36;5.32;;;2.60;;
27632;SDS011;15046;50.930;13.334;2022-08-03T07:46:02;5.38;;;2.38;;
27632;SDS011;15046;50.930;13.334;2022-08-03T07:48:28;4.05;;;2.40;;
27632;SDS011;15046;50.930;13.334;2022-08-03T07:50:53;3.90;;;2.55;;
27632;SDS011;15046;50.930;13.334;2022-08-03T07:53:19;5.53;;;2.75;;
27632;SDS011;15046;50.930;13.334;2022-08-03T07:55:45;4.72;;;2.35;;
27632;SDS011;15046;50.930;13.334;2022-08-03T07:58:11;3.45;;;2.25;;
27632;SDS011;15046;50.930;13.334;2022-08-03T08:00:40;6.53;;;2.75;;
27632;SDS011;15046;50.930;13.334;2022-08-03T08:03:06;9.38;;;2.55;;
27632;SDS011;15046;50.930;13.334;2022-08-03T08:05:32;5.55;;;2.88;;
27632;SDS011;15046;50.930;13.334;2022-08-03T08:07:59;5.70;;;2.55;;
27632;SDS011;15046;50.930;13.334;2022-08-03T08:10:25;8.27;;;2.80;;
27632;SDS011;15046;50.930;13.334;2022-08-03T08:12:51;11.40;;;2.60;;
27632;SDS011;15046;50.930;13.334;2022-08-03T08:15:17;5.65;;;2.35;;
27632;SDS011;15046;50.930;13.334;2022-08-03T08:17:46;6.97;;;2.70;;
27632;SDS011;15046;50.930;13.334;2022-08-03T08:20:17;6.25;;;2.40;;
27632;SDS011;15046;50.930;13.334;2022-08-03T08:22:45;3.80;;;2.80;;
27632;SDS011;15046;50.930;13.334;2022-08-03T08:25:11;6.43;;;2.58;;
27632;SDS011;15046;50.930;13.334;2022-08-03T08:27:41;5.68;;;2.40;;
27632;SDS011;15046;50.930;13.334;2022-08-03T08:30:11;3.88;;;2.42;;
27632;SDS011;15046;50.930;13.334;2022-08-03T08:32:38;4.00;;;2.50;;
27632;SDS011;15046;50.930;13.334;2022-08-03T08:35:05;6.05;;;2.50;;
27632;SDS011;15046;50.930;13.334;2022-08-03T08:37:31;4.63;;;2.35;;
27632;SDS011;15046;50.930;13.334;2022-08-03T08:39:58;5.85;;;2.50;;
27632;SDS011;15046;50.930;13.334;2022-08-03T08:42:24;12.25;;;2.60;;
27632;SDS011;15046;50.930;13.334;2022-08-03T08:44:50;7.55;;;2.67;;
27632;SDS011;15046;50.930;13.334;2022-08-03T08:47:17;3.55;;;2.40;;
27632;SDS011;15046;50.930;13.334;2022-08-03T08:49:45;6.63;;;2.65;;
27632;SDS011;15046;50.930;13.334;2022-08-03T08:52:12;3.88;;;2.25;;
27632;SDS011;15046;50.930;13.334;2022-08-03T08:54:39;4.53;;;2.40;;
27632;SDS011;15046;50.930;13.334;2022-08-03T08:57:06;4.18;;;2.40;;
27632;SDS011;15046;50.930;13.334;2022-08-03T08:59:33;4.55;;;2.22;;
27632;SDS011;15046;50.930;13.334;2022-08-03T09:01:59;4.38;;;2.60;;
27632;SDS011;15046;50.930;13.334;2022-08-03T09:04:26;4.97;;;2.45;;
27632;SDS011;15046;50.930;13.334;2022-08-03T09:06:53;3.40;;;2.30;;
27632;SDS011;15046;50.930;13.334;2022-08-03T09:09:19;4.28;;;2.55;;
27632;SDS011;15046;50.930;13.334;2022-08-03T09:11:46;3.58;;;2.10;;
27632;SDS011;15046;50.930;13.334;2022-08-03T09:14:13;3.33;;;2.15;;
27632;SDS011;15046;50.930;13.334;2022-08-03T09:16:54;5.13;;;2.72;;
27632;SDS011;15046;50.930;13.334;2022-08-03T09:19:23;3.78;;;2.15;;
27632;SDS011;15046;50.930;13.334;2022-08-03T09:22:06;3.42;;;2.15;;
27632;SDS011;15046;50.930;13.334;2022-08-03T09:24:56;5.25;;;2.28;;
27632;SDS011;15046;50.930;13.334;2022-08-03T09:27:23;5.32;;;2.50;;
27632;SDS011;15046;50.930;13.334;2022-08-03T09:29:50;5.22;;;2.30;;
27632;SDS011;15046;50.930;13.334;2022-08-03T09:32:20;3.63;;;2.20;;
27632;SDS011;15046;50.930;13.334;2022-08-03T09:34:48;8.32;;;2.47;;
27632;SDS011;15046;50.930;13.334;2022-08-03T09:37:16;8.07;;;2.83;;
27632;SDS011;15046;50.930;13.334;2022-08-03T09:39:45;3.57;;;2.20;;
27632;SDS011;15046;50.930;13.334;2022-08-03T09:42:12;4.43;;;2.58;;
27632;SDS011;15046;50.930;13.334;2022-08-03T09:44:42;4.88;;;2.30;;
27632;SDS011;15046;50.930;13.334;2022-08-03T09:47:10;6.13;;;2.05;;
27632;SDS011;15046;50.930;13.334;2022-08-03T09:49:37;4.78;;;2.40;;
27632;SDS011;15046;50.930;13.334;2022-08-03T09:52:16;3.58;;;2.20;;
27632;SDS011;15046;50.930;13.334;2022-08-03T09:54:43;7.28;;;2.42;;
27632;SDS011;15046;50.930;13.334;2022-08-03T09:57:19;3.17;;;2.10;;
27632;SDS011;15046;50.930;13.334;2022-08-03T09:59:47;3.63;;;1.88;;
27632;SDS011;15046;50.930;13.334;2022-08-03T10:02:23;4.30;;;2.13;;
27632;SDS011;15046;50.930;13.334;2022-08-03T10:04:50;4.20;;;2.30;;
27632;SDS011;15046;50.930;13.334;2022-08-03T10:07:17;4.65;;;2.08;;
27632;SDS011;15046;50.930;13.334;2022-08-03T10:10:00;3.42;;;2.20;;
27632;SDS011;15046;50.930;13.334;2022-08-03T10:12:27;2.87;;;1.60;;
27632;SDS011;15046;50.930;13.334;2022-08-03T10:14:53;6.35;;;1.92;;
27632;SDS011;15046;50.930;13.334;2022-08-03T10:17:20;19.65;;;3.08;;
27632;SDS011;15046;50.930;13.334;2022-08-03T10:19:47;4.57;;;2.13;;
27632;SDS011;15046;50.930;13.334;2022-08-03T10:25:02;3.72;;;2.00;;
27632;SDS011;15046;50.930;13.334;2022-08-03T10:27:39;5.15;;;1.92;;
27632;SDS011;15046;50.930;13.334;2022-08-03T10:30:07;2.75;;;1.83;;
27632;SDS011;15046;50.930;13.334;2022-08-03T10:32:39;3.22;;;1.83;;
27632;SDS011;15046;50.930;13.334;2022-08-03T10:37:41;4.47;;;1.85;;
27632;SDS011;15046;50.930;13.334;2022-08-03T10:40:09;5.05;;;1.90;;
27632;SDS011;15046;50.930;13.334;2022-08-03T10:42:39;3.95;;;1.80;;
27632;SDS011;15046;50.930;13.334;2022-08-03T10:45:10;3.60;;;2.13;;
27632;SDS011;15046;50.930;13.334;2022-08-03T10:47:40;3.42;;;2.20;;
27632;SDS011;15046;50.930;13.334;2022-08-03T10:50:06;4.60;;;2.03;;
27632;SDS011;15046;50.930;13.334;2022-08-03T10:52:33;4.03;;;1.70;;
27632;SDS011;15046;50.930;13.334;2022-08-03T10:54:59;2.83;;;1.63;;
27632;SDS011;15046;50.930;13.334;2022-08-03T10:57:50;3.47;;;1.95;;
27632;SDS011;15046;50.930;13.334;2022-08-03T11:00:21;3.72;;;2.10;;
27632;SDS011;15046;50.930;13.334;2022-08-03T11:03:02;4.13;;;1.88;;
27632;SDS011;15046;50.930;13.334;2022-08-03T11:05:44;3.83;;;1.77;;
27632;SDS011;15046;50.930;13.334;2022-08-03T11:08:16;4.15;;;1.35;;
27632;SDS011;15046;50.930;13.334;2022-08-03T11:10:42;5.03;;;1.90;;
27632;SDS011;15046;50.930;13.334;2022-08-03T11:13:08;2.40;;;1.50;;
27632;SDS011;15046;50.930;13.334;2022-08-03T11:15:39;2.90;;;1.40;;
27632;SDS011;15046;50.930;13.334;2022-08-03T11:18:08;2.53;;;1.55;;
27632;SDS011;15046;50.930;13.334;2022-08-03T11:26:16;2.75;;;1.63;;
27632;SDS011;15046;50.930;13.334;2022-08-03T11:28:43;2.47;;;1.45;;
27632;SDS011;15046;50.930;13.334;2022-08-03T11:39:41;2.95;;;1.48;;
27632;SDS011;15046;50.930;13.334;2022-08-03T11:44:51;2.53;;;1.63;;
27632;SDS011;15046;50.930;13.334;2022-08-03T11:47:22;3.55;;;1.50;;
27632;SDS011;15046;50.930;13.334;2022-08-03T11:49:52;3.70;;;1.73;;
27632;SDS011;15046;50.930;13.334;2022-08-03T11:52:19;4.68;;;1.42;;
27632;SDS011;15046;50.930;13.334;2022-08-03T11:54:49;3.67;;;1.65;;
27632;SDS011;15046;50.930;13.334;2022-08-03T11:57:31;2.67;;;1.50;;
27632;SDS011;15046;50.930;13.334;2022-08-03T11:59:59;2.40;;;1.42;;
27632;SDS011;15046;50.930;13.334;2022-08-03T12:02:25;2.40;;;1.67;;
27632;SDS011;15046;50.930;13.334;2022-08-03T12:04:55;3.13;;;1.83;;
27632;SDS011;15046;50.930;13.334;2022-08-03T12:07:26;2.55;;;1.73;;
27632;SDS011;15046;50.930;13.334;2022-08-03T12:10:06;2.95;;;1.63;;
27632;SDS011;15046;50.930;13.334;2022-08-03T12:12:38;3.50;;;1.90;;
27632;SDS011;15046;50.930;13.334;2022-08-03T12:15:07;4.07;;;1.90;;
27632;SDS011;15046;50.930;13.334;2022-08-03T12:17:37;3.60;;;1.58;;
27632;SDS011;15046;50.930;13.334;2022-08-03T12:20:06;3.28;;;1.80;;
27632;SDS011;15046;50.930;13.334;2022-08-03T12:22:37;6.32;;;1.77;;
27632;SDS011;15046;50.930;13.334;2022-08-03T12:25:05;2.58;;;1.60;;
27632;SDS011;15046;50.930;13.334;2022-08-03T12:27:32;2.25;;;1.55;;
27632;SDS011;15046;50.930;13.334;2022-08-03T12:29:59;2.45;;;1.77;;
27632;SDS011;15046;50.930;13.334;2022-08-03T12:32:26;2.03;;;1.58;;
27632;SDS011;15046;50.930;13.334;2022-08-03T12:37:24;2.70;;;1.80;;
27632;SDS011;15046;50.930;13.334;2022-08-03T12:39:50;8.82;;;2.13;;
27632;SDS011;15046;50.930;13.334;2022-08-03T12:42:20;5.10;;;1.40;;
27632;SDS011;15046;50.930;13.334;2022-08-03T12:44:53;4.85;;;1.65;;
27632;SDS011;15046;50.930;13.334;2022-08-03T12:47:19;2.90;;;1.65;;
27632;SDS011;15046;50.930;13.334;2022-08-03T12:49:46;6.95;;;2.08;;
27632;SDS011;15046;50.930;13.334;2022-08-03T12:52:13;3.85;;;2.25;;
27632;SDS011;15046;50.930;13.334;2022-08-03T12:54:40;4.35;;;1.80;;
27632;SDS011;15046;50.930;13.334;2022-08-03T12:57:10;4.90;;;2.22;;
27632;SDS011;15046;50.930;13.334;2022-08-03T12:59:40;4.40;;;1.70;;
27632;SDS011;15046;50.930;13.334;2022-08-03T13:02:14;6.32;;;1.60;;
27632;SDS011;15046;50.930;13.334;2022-08-03T13:04:44;2.90;;;1.70;;
27632;SDS011;15046;50.930;13.334;2022-08-03T13:07:11;4.15;;;1.70;;
27632;SDS011;15046;50.930;13.334;2022-08-03T13:09:49;2.53;;;1.45;;
27632;SDS011;15046;50.930;13.334;2022-08-03T13:12:22;3.58;;;1.88;;
27632;SDS011;15046;50.930;13.334;2022-08-03T13:14:56;2.70;;;1.70;;
27632;SDS011;15046;50.930;13.334;2022-08-03T13:17:23;4.50;;;1.88;;
27632;SDS011;15046;50.930;13.334;2022-08-03T13:19:50;3.08;;;1.63;;
27632;SDS011;15046;50.930;13.334;2022-08-03T13:22:24;3.58;;;1.73;;
27632;SDS011;15046;50.930;13.334;2022-08-03T13:24:53;2.33;;;1.70;;
27632;SDS011;15046;50.930;13.334;2022-08-03T13:27:21;4.00;;;1.80;;
27632;SDS011;15046;50.930;13.334;2022-08-03T13:29:48;3.08;;;1.60;;
27632;SDS011;15046;50.930;13.334;2022-08-03T13:32:14;4.93;;;1.90;;
27632;SDS011;15046;50.930;13.334;2022-08-03T13:34:40;4.45;;;1.38;;
27632;SDS011;15046;50.930;13.334;2022-08-03T13:37:06;5.03;;;1.75;;
27632;SDS011;15046;50.930;13.334;2022-08-03T13:39:32;1.92;;;1.33;;
27632;SDS011;15046;50.930;13.334;2022-08-03T13:41:58;3.30;;;1.63;;
27632;SDS011;15046;50.930;13.334;2022-08-03T13:44:23;18.67;;;2.25;;
27632;SDS011;15046;50.930;13.334;2022-08-03T13:46:49;5.07;;;1.73;;
27632;SDS011;15046;50.930;13.334;2022-08-03T13:49:15;2.70;;;1.80;;
27632;SDS011;15046;50.930;13.334;2022-08-03T13:51:41;4.82;;;1.70;;
27632;SDS011;15046;50.930;13.334;2022-08-03T13:54:07;3.70;;;1.80;;
27632;SDS011;15046;50.930;13.334;2022-08-03T13:56:33;4.40;;;1.63;;
27632;SDS011;15046;50.930;13.334;2022-08-03T13:58:59;3.35;;;1.80;;
27632;SDS011;15046;50.930;13.334;2022-08-03T14:01:25;3.83;;;1.92;;
27632;SDS011;15046;50.930;13.334;2022-08-03T14:03:51;2.42;;;1.60;;
27632;SDS011;15046;50.930;13.334;2022-08-03T14:06:19;3.97;;;1.80;;
27632;SDS011;15046;50.930;13.334;2022-08-03T14:08:45;3.25;;;1.70;;
27632;SDS011;15046;50.930;13.334;2022-08-03T14:11:12;4.88;;;1.55;;
27632;SDS011;15046;50.930;13.334;2022-08-03T14:13:38;3.33;;;1.50;;
27632;SDS011;15046;50.930;13.334;2022-08-03T14:16:04;2.90;;;1.83;;
27632;SDS011;15046;50.930;13.334;2022-08-03T14:18:30;2.92;;;1.77;;
27632;SDS011;15046;50.930;13.334;2022-08-03T14:20:56;2.28;;;1.50;;
27632;SDS011;15046;50.930;13.334;2022-08-03T14:23:22;4.70;;;1.60;;
27632;SDS011;15046;50.930;13.334;2022-08-03T14:25:49;4.05;;;1.80;;
27632;SDS011;15046;50.930;13.334;2022-08-03T14:28:14;4.28;;;1.55;;
27632;SDS011;15046;50.930;13.334;2022-08-03T14:30:40;3.30;;;1.75;;
27632;SDS011;15046;50.930;13.334;2022-08-03T14:33:06;4.07;;;1.60;;
27632;SDS011;15046;50.930;13.334;2022-08-03T14:35:32;5.63;;;1.85;;
27632;SDS011;15046;50.930;13.334;2022-08-03T14:37:58;3.58;;;1.77;;
27632;SDS011;15046;50.930;13.334;2022-08-03T14:40:24;2.13;;;1.67;;
27632;SDS011;15046;50.930;13.334;2022-08-03T14:42:49;3.33;;;1.60;;
27632;SDS011;15046;50.930;13.334;2022-08-03T14:45:15;2.88;;;1.90;;
27632;SDS011;15046;50.930;13.334;2022-08-03T14:47:41;2.67;;;1.60;;
27632;SDS011;15046;50.930;13.334;2022-08-03T14:50:07;2.88;;;1.63;;
27632;SDS011;15046;50.930;13.334;2022-08-03T14:52:33;2.00;;;1.60;;
27632;SDS011;15046;50.930;13.334;2022-08-03T14:54:59;3.10;;;1.60;;
27632;SDS011;15046;50.930;13.334;2022-08-03T14:57:25;2.63;;;1.83;;
27632;SDS011;15046;50.930;13.334;2022-08-03T14:59:51;5.15;;;1.83;;
27632;SDS011;15046;50.930;13.334;2022-08-03T15:02:18;4.75;;;1.83;;
27632;SDS011;15046;50.930;13.334;2022-08-03T15:04:44;4.25;;;1.95;;
27632;SDS011;15046;50.930;13.334;2022-08-03T15:07:10;5.47;;;1.88;;
27632;SDS011;15046;50.930;13.334;2022-08-03T15:09:36;3.35;;;1.50;;
27632;SDS011;15046;50.930;13.334;2022-08-03T15:12:04;3.40;;;1.98;;
27632;SDS011;15046;50.930;13.334;2022-08-03T15:14:31;3.70;;;1.63;;
27632;SDS011;15046;50.930;13.334;2022-08-03T15:16:57;1.90;;;1.60;;
27632;SDS011;15046;50.930;13.334;2022-08-03T15:19:23;4.93;;;1.63;;
27632;SDS011;15046;50.930;13.334;2022-08-03T15:21:48;4.68;;;1.98;;